Terminal Aerodrome Forecast
Issued by NWS

Home | Current Version | Previous Version | Text Only | Print | Product List | Glossary On
Versions: 1 2 3 4 5 6 7 8 9 10 11 12 13 14 15
440
FTUS45 KTFX 231631 AAA
TAFHVR
TAF AMD
KHVR 231631Z 2317/2412 36006KT 4SM -SN BR SCT005 OVC025
      TEMPO 2317/2321 2SM -SN BR OVC015
     FM232300 32006KT P6SM VCSH SCT005 OVC035
     FM240300 30005KT 3SM BR SCT005 OVC020=

USA.gov is the U.S. government's official web portal to all federal, state and local government web resources and services.